sensor_id;sensor_type;location;lat;lon;timestamp;P1;durP1;ratioP1;P2;durP2;ratioP2
64052;SDS011;50299;49.524;8.536;2023-10-13T00:02:12;5.50;;;3.35;;
64052;SDS011;50299;49.524;8.536;2023-10-13T00:04:40;6.30;;;3.45;;
64052;SDS011;50299;49.524;8.536;2023-10-13T00:07:08;3.88;;;2.90;;
64052;SDS011;50299;49.524;8.536;2023-10-13T00:09:36;4.63;;;3.20;;
64052;SDS011;50299;49.524;8.536;2023-10-13T00:12:06;4.93;;;3.17;;
64052;SDS011;50299;49.524;8.536;2023-10-13T00:14:40;4.15;;;3.38;;
64052;SDS011;50299;49.524;8.536;2023-10-13T00:17:12;3.25;;;2.92;;
64052;SDS011;50299;49.524;8.536;2023-10-13T00:19:51;4.35;;;2.92;;
64052;SDS011;50299;49.524;8.536;2023-10-13T00:22:21;6.22;;;3.40;;
64052;SDS011;50299;49.524;8.536;2023-10-13T00:24:49;4.00;;;2.50;;
64052;SDS011;50299;49.524;8.536;2023-10-13T00:27:18;6.88;;;3.08;;
64052;SDS011;50299;49.524;8.536;2023-10-13T00:30:03;3.78;;;2.95;;
64052;SDS011;50299;49.524;8.536;2023-10-13T00:32:49;4.40;;;2.83;;
64052;SDS011;50299;49.524;8.536;2023-10-13T00:35:23;4.63;;;3.33;;
64052;SDS011;50299;49.524;8.536;2023-10-13T00:37:57;5.15;;;2.97;;
64052;SDS011;50299;49.524;8.536;2023-10-13T00:40:31;6.18;;;3.58;;
64052;SDS011;50299;49.524;8.536;2023-10-13T00:42:58;3.72;;;2.92;;
64052;SDS011;50299;49.524;8.536;2023-10-13T00:45:52;3.22;;;2.85;;
64052;SDS011;50299;49.524;8.536;2023-10-13T00:48:38;6.20;;;3.33;;
64052;SDS011;50299;49.524;8.536;2023-10-13T00:51:12;4.45;;;3.53;;
64052;SDS011;50299;49.524;8.536;2023-10-13T00:53:45;3.65;;;2.90;;
64052;SDS011;50299;49.524;8.536;2023-10-13T00:56:14;5.78;;;3.45;;
64052;SDS011;50299;49.524;8.536;2023-10-13T00:58:45;4.40;;;3.58;;
64052;SDS011;50299;49.524;8.536;2023-10-13T01:01:12;4.78;;;3.00;;
64052;SDS011;50299;49.524;8.536;2023-10-13T01:06:18;6.10;;;3.88;;
64052;SDS011;50299;49.524;8.536;2023-10-13T01:08:46;4.53;;;3.70;;
64052;SDS011;50299;49.524;8.536;2023-10-13T01:11:18;5.07;;;3.33;;
64052;SDS011;50299;49.524;8.536;2023-10-13T01:13:45;5.82;;;3.38;;
64052;SDS011;50299;49.524;8.536;2023-10-13T01:16:18;3.40;;;2.85;;
64052;SDS011;50299;49.524;8.536;2023-10-13T01:18:49;5.35;;;3.22;;
64052;SDS011;50299;49.524;8.536;2023-10-13T01:21:16;5.28;;;3.70;;
64052;SDS011;50299;49.524;8.536;2023-10-13T01:23:46;5.07;;;3.08;;
64052;SDS011;50299;49.524;8.536;2023-10-13T01:26:14;6.25;;;3.10;;
64052;SDS011;50299;49.524;8.536;2023-10-13T01:28:50;4.45;;;3.42;;
64052;SDS011;50299;49.524;8.536;2023-10-13T01:31:18;5.00;;;3.10;;
64052;SDS011;50299;49.524;8.536;2023-10-13T01:33:56;3.95;;;3.45;;
64052;SDS011;50299;49.524;8.536;2023-10-13T01:36:28;3.92;;;2.88;;
64052;SDS011;50299;49.524;8.536;2023-10-13T01:39:01;5.07;;;3.28;;
64052;SDS011;50299;49.524;8.536;2023-10-13T01:41:27;4.65;;;3.15;;
64052;SDS011;50299;49.524;8.536;2023-10-13T01:43:57;5.18;;;3.88;;
64052;SDS011;50299;49.524;8.536;2023-10-13T01:46:24;4.68;;;3.53;;
64052;SDS011;50299;49.524;8.536;2023-10-13T01:48:50;4.82;;;3.45;;
64052;SDS011;50299;49.524;8.536;2023-10-13T01:51:20;4.65;;;3.03;;
64052;SDS011;50299;49.524;8.536;2023-10-13T01:53:49;7.68;;;3.40;;
64052;SDS011;50299;49.524;8.536;2023-10-13T01:56:22;5.05;;;3.13;;
64052;SDS011;50299;49.524;8.536;2023-10-13T01:58:56;6.40;;;3.38;;
64052;SDS011;50299;49.524;8.536;2023-10-13T02:01:22;6.10;;;3.60;;
64052;SDS011;50299;49.524;8.536;2023-10-13T02:03:55;6.00;;;3.47;;
64052;SDS011;50299;49.524;8.536;2023-10-13T02:06:33;5.57;;;3.72;;
64052;SDS011;50299;49.524;8.536;2023-10-13T02:09:07;4.70;;;3.38;;
64052;SDS011;50299;49.524;8.536;2023-10-13T02:11:43;4.03;;;3.53;;
64052;SDS011;50299;49.524;8.536;2023-10-13T02:14:13;5.60;;;3.88;;
64052;SDS011;50299;49.524;8.536;2023-10-13T02:16:43;4.28;;;3.88;;
64052;SDS011;50299;49.524;8.536;2023-10-13T02:19:13;4.88;;;3.28;;
64052;SDS011;50299;49.524;8.536;2023-10-13T02:21:42;5.13;;;3.80;;
64052;SDS011;50299;49.524;8.536;2023-10-13T02:24:11;6.70;;;4.15;;
64052;SDS011;50299;49.524;8.536;2023-10-13T02:26:44;6.00;;;3.95;;
64052;SDS011;50299;49.524;8.536;2023-10-13T02:29:11;6.50;;;4.10;;
64052;SDS011;50299;49.524;8.536;2023-10-13T02:31:44;6.28;;;3.75;;
64052;SDS011;50299;49.524;8.536;2023-10-13T02:34:21;5.20;;;3.45;;
64052;SDS011;50299;49.524;8.536;2023-10-13T02:36:51;5.28;;;3.90;;
64052;SDS011;50299;49.524;8.536;2023-10-13T02:39:18;6.00;;;4.10;;
64052;SDS011;50299;49.524;8.536;2023-10-13T02:41:55;5.47;;;3.92;;
64052;SDS011;50299;49.524;8.536;2023-10-13T02:44:22;5.90;;;4.07;;
64052;SDS011;50299;49.524;8.536;2023-10-13T02:46:57;6.82;;;3.47;;
64052;SDS011;50299;49.524;8.536;2023-10-13T02:49:26;4.93;;;3.80;;
64052;SDS011;50299;49.524;8.536;2023-10-13T02:51:53;6.03;;;3.50;;
64052;SDS011;50299;49.524;8.536;2023-10-13T02:54:26;8.57;;;3.95;;
64052;SDS011;50299;49.524;8.536;2023-10-13T02:56:57;8.15;;;3.90;;
64052;SDS011;50299;49.524;8.536;2023-10-13T02:59:30;5.47;;;3.92;;
64052;SDS011;50299;49.524;8.536;2023-10-13T03:02:07;5.03;;;3.45;;
64052;SDS011;50299;49.524;8.536;2023-10-13T03:04:54;7.63;;;3.72;;
64052;SDS011;50299;49.524;8.536;2023-10-13T03:12:45;5.45;;;4.10;;
64052;SDS011;50299;49.524;8.536;2023-10-13T03:15:15;7.75;;;4.13;;
64052;SDS011;50299;49.524;8.536;2023-10-13T03:17:49;4.93;;;3.63;;
64052;SDS011;50299;49.524;8.536;2023-10-13T03:20:16;5.85;;;4.15;;
64052;SDS011;50299;49.524;8.536;2023-10-13T03:25:25;6.40;;;3.63;;
64052;SDS011;50299;49.524;8.536;2023-10-13T03:27:56;9.68;;;3.90;;
64052;SDS011;50299;49.524;8.536;2023-10-13T03:30:30;5.72;;;3.80;;
64052;SDS011;50299;49.524;8.536;2023-10-13T03:33:09;6.97;;;4.28;;
64052;SDS011;50299;49.524;8.536;2023-10-13T03:35:38;5.03;;;3.70;;
64052;SDS011;50299;49.524;8.536;2023-10-13T03:38:09;5.25;;;3.50;;
64052;SDS011;50299;49.524;8.536;2023-10-13T03:40:46;4.72;;;3.58;;
64052;SDS011;50299;49.524;8.536;2023-10-13T03:43:23;5.65;;;4.05;;
64052;SDS011;50299;49.524;8.536;2023-10-13T03:45:50;5.35;;;4.25;;
64052;SDS011;50299;49.524;8.536;2023-10-13T03:48:26;5.05;;;3.45;;
64052;SDS011;50299;49.524;8.536;2023-10-13T03:50:54;7.05;;;3.80;;
64052;SDS011;50299;49.524;8.536;2023-10-13T03:53:37;5.70;;;4.40;;
64052;SDS011;50299;49.524;8.536;2023-10-13T03:56:25;4.32;;;3.70;;
64052;SDS011;50299;49.524;8.536;2023-10-13T03:58:59;4.63;;;3.20;;
64052;SDS011;50299;49.524;8.536;2023-10-13T04:01:47;4.65;;;3.75;;
64052;SDS011;50299;49.524;8.536;2023-10-13T04:04:29;6.80;;;4.05;;
64052;SDS011;50299;49.524;8.536;2023-10-13T04:07:01;3.92;;;3.45;;
64052;SDS011;50299;49.524;8.536;2023-10-13T04:09:31;6.22;;;4.10;;
64052;SDS011;50299;49.524;8.536;2023-10-13T04:11:58;4.55;;;3.22;;
64052;SDS011;50299;49.524;8.536;2023-10-13T04:17:18;4.03;;;3.58;;
64052;SDS011;50299;49.524;8.536;2023-10-13T04:19:55;8.07;;;3.80;;
64052;SDS011;50299;49.524;8.536;2023-10-13T04:22:34;6.57;;;3.65;;
64052;SDS011;50299;49.524;8.536;2023-10-13T04:25:17;4.55;;;3.35;;
64052;SDS011;50299;49.524;8.536;2023-10-13T04:28:13;8.43;;;4.38;;
64052;SDS011;50299;49.524;8.536;2023-10-13T04:30:44;3.67;;;3.15;;
64052;SDS011;50299;49.524;8.536;2023-10-13T04:33:25;4.97;;;3.55;;
64052;SDS011;50299;49.524;8.536;2023-10-13T04:38:56;5.45;;;3.17;;
64052;SDS011;50299;49.524;8.536;2023-10-13T04:41:26;5.78;;;3.58;;
64052;SDS011;50299;49.524;8.536;2023-10-13T04:44:02;5.43;;;3.70;;
64052;SDS011;50299;49.524;8.536;2023-10-13T04:46:52;4.35;;;3.08;;
64052;SDS011;50299;49.524;8.536;2023-10-13T04:49:29;9.02;;;3.72;;
64052;SDS011;50299;49.524;8.536;2023-10-13T04:52:15;4.18;;;3.10;;
64052;SDS011;50299;49.524;8.536;2023-10-13T04:55:01;9.00;;;3.70;;
64052;SDS011;50299;49.524;8.536;2023-10-13T04:57:59;4.40;;;3.42;;
64052;SDS011;50299;49.524;8.536;2023-10-13T05:00:41;4.80;;;3.47;;
64052;SDS011;50299;49.524;8.536;2023-10-13T05:03:43;6.53;;;3.78;;
64052;SDS011;50299;49.524;8.536;2023-10-13T05:06:29;4.70;;;3.53;;
64052;SDS011;50299;49.524;8.536;2023-10-13T05:09:11;4.75;;;3.30;;
64052;SDS011;50299;49.524;8.536;2023-10-13T05:11:58;4.25;;;3.38;;
64052;SDS011;50299;49.524;8.536;2023-10-13T05:14:44;4.47;;;3.40;;
64052;SDS011;50299;49.524;8.536;2023-10-13T05:17:29;4.72;;;3.05;;
64052;SDS011;50299;49.524;8.536;2023-10-13T05:20:15;5.03;;;3.65;;
64052;SDS011;50299;49.524;8.536;2023-10-13T05:22:59;5.50;;;3.80;;
64052;SDS011;50299;49.524;8.536;2023-10-13T05:25:48;5.65;;;3.28;;
64052;SDS011;50299;49.524;8.536;2023-10-13T05:34:38;5.70;;;2.92;;
64052;SDS011;50299;49.524;8.536;2023-10-13T05:37:23;4.22;;;3.45;;
64052;SDS011;50299;49.524;8.536;2023-10-13T05:40:12;6.07;;;3.83;;
64052;SDS011;50299;49.524;8.536;2023-10-13T05:42:57;4.32;;;3.00;;
64052;SDS011;50299;49.524;8.536;2023-10-13T05:45:42;5.25;;;3.55;;
64052;SDS011;50299;49.524;8.536;2023-10-13T05:51:18;6.30;;;3.22;;
64052;SDS011;50299;49.524;8.536;2023-10-13T05:54:03;4.25;;;3.22;;
64052;SDS011;50299;49.524;8.536;2023-10-13T05:56:45;4.10;;;2.78;;
64052;SDS011;50299;49.524;8.536;2023-10-13T05:59:37;7.75;;;3.45;;
64052;SDS011;50299;49.524;8.536;2023-10-13T06:02:23;4.38;;;2.78;;
64052;SDS011;50299;49.524;8.536;2023-10-13T06:05:10;4.65;;;3.03;;
64052;SDS011;50299;49.524;8.536;2023-10-13T06:07:56;5.80;;;3.17;;
64052;SDS011;50299;49.524;8.536;2023-10-13T06:10:42;3.85;;;2.78;;
64052;SDS011;50299;49.524;8.536;2023-10-13T06:13:32;3.58;;;2.40;;
64052;SDS011;50299;49.524;8.536;2023-10-13T06:16:17;4.32;;;2.80;;
64052;SDS011;50299;49.524;8.536;2023-10-13T06:19:03;5.63;;;3.22;;
64052;SDS011;50299;49.524;8.536;2023-10-13T06:21:50;3.45;;;2.80;;
64052;SDS011;50299;49.524;8.536;2023-10-13T06:24:35;4.97;;;2.95;;
64052;SDS011;50299;49.524;8.536;2023-10-13T06:27:23;3.95;;;3.03;;
64052;SDS011;50299;49.524;8.536;2023-10-13T06:30:08;4.93;;;2.47;;
64052;SDS011;50299;49.524;8.536;2023-10-13T06:32:35;3.47;;;3.05;;
64052;SDS011;50299;49.524;8.536;2023-10-13T06:35:06;5.32;;;3.20;;
64052;SDS011;50299;49.524;8.536;2023-10-13T06:37:33;5.90;;;2.97;;
64052;SDS011;50299;49.524;8.536;2023-10-13T06:40:01;3.72;;;2.55;;
64052;SDS011;50299;49.524;8.536;2023-10-13T06:42:33;4.85;;;2.60;;
64052;SDS011;50299;49.524;8.536;2023-10-13T06:45:09;4.25;;;2.40;;
64052;SDS011;50299;49.524;8.536;2023-10-13T06:47:38;4.90;;;2.92;;
64052;SDS011;50299;49.524;8.536;2023-10-13T06:50:12;4.22;;;3.00;;
64052;SDS011;50299;49.524;8.536;2023-10-13T06:52:45;7.47;;;3.00;;
64052;SDS011;50299;49.524;8.536;2023-10-13T06:55:17;4.70;;;2.95;;
64052;SDS011;50299;49.524;8.536;2023-10-13T06:58:01;3.20;;;2.50;;
64052;SDS011;50299;49.524;8.536;2023-10-13T07:00:28;4.00;;;2.67;;
64052;SDS011;50299;49.524;8.536;2023-10-13T07:03:19;3.00;;;2.70;;
64052;SDS011;50299;49.524;8.536;2023-10-13T07:05:45;4.35;;;2.22;;
64052;SDS011;50299;49.524;8.536;2023-10-13T07:08:17;4.82;;;2.60;;
64052;SDS011;50299;49.524;8.536;2023-10-13T07:10:49;4.30;;;3.42;;
64052;SDS011;50299;49.524;8.536;2023-10-13T07:13:34;2.92;;;2.33;;
64052;SDS011;50299;49.524;8.536;2023-10-13T07:16:06;4.20;;;2.63;;
64052;SDS011;50299;49.524;8.536;2023-10-13T07:21:24;2.83;;;2.10;;
64052;SDS011;50299;49.524;8.536;2023-10-13T07:23:58;4.53;;;2.42;;
64052;SDS011;50299;49.524;8.536;2023-10-13T07:26:35;2.72;;;2.53;;
64052;SDS011;50299;49.524;8.536;2023-10-13T07:29:22;3.47;;;2.42;;
64052;SDS011;50299;49.524;8.536;2023-10-13T07:31:51;4.35;;;2.40;;
64052;SDS011;50299;49.524;8.536;2023-10-13T07:34:18;3.50;;;2.75;;
64052;SDS011;50299;49.524;8.536;2023-10-13T07:37:05;3.88;;;3.08;;
64052;SDS011;50299;49.524;8.536;2023-10-13T07:39:42;2.90;;;2.03;;
64052;SDS011;50299;49.524;8.536;2023-10-13T07:42:11;5.18;;;2.85;;
64052;SDS011;50299;49.524;8.536;2023-10-13T07:44:46;4.28;;;3.08;;
64052;SDS011;50299;49.524;8.536;2023-10-13T07:47:13;4.00;;;2.17;;
64052;SDS011;50299;49.524;8.536;2023-10-13T07:49:41;2.58;;;2.35;;
64052;SDS011;50299;49.524;8.536;2023-10-13T07:52:08;2.30;;;2.10;;
64052;SDS011;50299;49.524;8.536;2023-10-13T07:54:47;3.08;;;2.70;;
64052;SDS011;50299;49.524;8.536;2023-10-13T07:57:50;3.55;;;2.60;;
64052;SDS011;50299;49.524;8.536;2023-10-13T08:00:22;2.42;;;2.03;;
64052;SDS011;50299;49.524;8.536;2023-10-13T08:03:13;2.63;;;1.95;;
64052;SDS011;50299;49.524;8.536;2023-10-13T08:05:43;4.65;;;2.17;;
64052;SDS011;50299;49.524;8.536;2023-10-13T08:08:31;2.63;;;1.85;;
64052;SDS011;50299;49.524;8.536;2023-10-13T08:11:05;2.83;;;1.80;;
64052;SDS011;50299;49.524;8.536;2023-10-13T08:13:59;4.60;;;2.35;;
64052;SDS011;50299;49.524;8.536;2023-10-13T08:16:40;4.22;;;1.90;;
64052;SDS011;50299;49.524;8.536;2023-10-13T08:19:29;4.05;;;2.35;;
64052;SDS011;50299;49.524;8.536;2023-10-13T08:22:12;6.97;;;2.10;;
64052;SDS011;50299;49.524;8.536;2023-10-13T08:24:42;3.58;;;2.47;;
64052;SDS011;50299;49.524;8.536;2023-10-13T08:27:19;2.70;;;2.30;;
64052;SDS011;50299;49.524;8.536;2023-10-13T08:30:14;5.70;;;2.38;;
64052;SDS011;50299;49.524;8.536;2023-10-13T08:32:52;4.40;;;2.60;;
64052;SDS011;50299;49.524;8.536;2023-10-13T08:35:24;2.22;;;1.88;;
64052;SDS011;50299;49.524;8.536;2023-10-13T08:38:01;5.00;;;2.00;;
64052;SDS011;50299;49.524;8.536;2023-10-13T08:40:57;6.22;;;2.40;;
64052;SDS011;50299;49.524;8.536;2023-10-13T08:43:43;3.45;;;2.50;;
64052;SDS011;50299;49.524;8.536;2023-10-13T08:46:30;2.53;;;2.25;;
64052;SDS011;50299;49.524;8.536;2023-10-13T08:49:05;3.25;;;1.58;;
64052;SDS011;50299;49.524;8.536;2023-10-13T08:51:40;2.10;;;1.90;;
64052;SDS011;50299;49.524;8.536;2023-10-13T08:54:12;1.80;;;1.67;;
64052;SDS011;50299;49.524;8.536;2023-10-13T08:56:46;4.40;;;2.30;;
64052;SDS011;50299;49.524;8.536;2023-10-13T08:59:22;2.33;;;1.77;;
64052;SDS011;50299;49.524;8.536;2023-10-13T09:01:59;2.78;;;2.22;;
64052;SDS011;50299;49.524;8.536;2023-10-13T09:04:26;3.63;;;2.47;;
64052;SDS011;50299;49.524;8.536;2023-10-13T09:06:54;4.03;;;2.22;;
64052;SDS011;50299;49.524;8.536;2023-10-13T09:09:31;4.13;;;2.13;;
64052;SDS011;50299;49.524;8.536;2023-10-13T09:12:10;2.47;;;2.17;;
64052;SDS011;50299;49.524;8.536;2023-10-13T09:14:41;2.47;;;2.10;;
64052;SDS011;50299;49.524;8.536;2023-10-13T09:17:13;3.90;;;2.30;;
64052;SDS011;50299;49.524;8.536;2023-10-13T09:19:47;2.55;;;1.98;;
64052;SDS011;50299;49.524;8.536;2023-10-13T09:22:27;4.32;;;2.45;;
64052;SDS011;50299;49.524;8.536;2023-10-13T09:25:01;2.95;;;1.77;;
64052;SDS011;50299;49.524;8.536;2023-10-13T09:27:32;4.20;;;2.05;;
64052;SDS011;50299;49.524;8.536;2023-10-13T09:30:00;3.55;;;1.98;;
64052;SDS011;50299;49.524;8.536;2023-10-13T09:32:45;3.33;;;2.03;;
64052;SDS011;50299;49.524;8.536;2023-10-13T09:35:16;3.97;;;2.70;;
64052;SDS011;50299;49.524;8.536;2023-10-13T09:37:50;2.17;;;1.98;;
64052;SDS011;50299;49.524;8.536;2023-10-13T09:40:22;2.80;;;1.80;;
64052;SDS011;50299;49.524;8.536;2023-10-13T09:42:55;6.28;;;2.65;;
64052;SDS011;50299;49.524;8.536;2023-10-13T09:45:24;3.17;;;1.58;;
64052;SDS011;50299;49.524;8.536;2023-10-13T09:47:55;3.20;;;2.00;;
64052;SDS011;50299;49.524;8.536;2023-10-13T09:50:35;4.75;;;2.25;;
64052;SDS011;50299;49.524;8.536;2023-10-13T09:53:04;3.53;;;2.42;;
64052;SDS011;50299;49.524;8.536;2023-10-13T09:55:38;4.22;;;1.98;;
64052;SDS011;50299;49.524;8.536;2023-10-13T09:58:11;7.95;;;1.80;;
64052;SDS011;50299;49.524;8.536;2023-10-13T10:00:42;5.25;;;2.10;;
64052;SDS011;50299;49.524;8.536;2023-10-13T10:03:47;3.25;;;1.83;;
64052;SDS011;50299;49.524;8.536;2023-10-13T10:06:33;3.88;;;2.10;;
64052;SDS011;50299;49.524;8.536;2023-10-13T10:09:06;2.75;;;1.80;;
64052;SDS011;50299;49.524;8.536;2023-10-13T10:11:59;4.45;;;2.90;;
64052;SDS011;50299;49.524;8.536;2023-10-13T10:17:41;4.47;;;1.90;;
64052;SDS011;50299;49.524;8.536;2023-10-13T10:20:08;5.82;;;2.70;;
64052;SDS011;50299;49.524;8.536;2023-10-13T10:22:55;1.98;;;1.60;;
64052;SDS011;50299;49.524;8.536;2023-10-13T10:25:29;5.55;;;2.00;;
64052;SDS011;50299;49.524;8.536;2023-10-13T10:28:02;2.10;;;1.63;;
64052;SDS011;50299;49.524;8.536;2023-10-13T10:30:36;2.85;;;2.00;;
64052;SDS011;50299;49.524;8.536;2023-10-13T10:33:09;2.75;;;1.77;;
64052;SDS011;50299;49.524;8.536;2023-10-13T10:35:43;6.35;;;1.77;;
64052;SDS011;50299;49.524;8.536;2023-10-13T10:38:14;2.67;;;1.90;;
64052;SDS011;50299;49.524;8.536;2023-10-13T10:43:36;2.22;;;1.98;;
64052;SDS011;50299;49.524;8.536;2023-10-13T10:46:25;3.47;;;1.80;;
64052;SDS011;50299;49.524;8.536;2023-10-13T10:48:56;4.45;;;2.08;;
64052;SDS011;50299;49.524;8.536;2023-10-13T10:51:27;7.07;;;1.90;;
64052;SDS011;50299;49.524;8.536;2023-10-13T10:54:00;3.25;;;1.95;;
64052;SDS011;50299;49.524;8.536;2023-10-13T10:56:39;3.95;;;2.00;;
64052;SDS011;50299;49.524;8.536;2023-10-13T10:59:06;3.95;;;1.90;;
64052;SDS011;50299;49.524;8.536;2023-10-13T11:01:42;4.93;;;2.10;;
64052;SDS011;50299;49.524;8.536;2023-10-13T11:04:19;3.42;;;1.63;;
64052;SDS011;50299;49.524;8.536;2023-10-13T11:06:51;3.17;;;1.98;;
64052;SDS011;50299;49.524;8.536;2023-10-13T11:09:31;2.35;;;1.58;;
64052;SDS011;50299;49.524;8.536;2023-10-13T11:14:43;1.98;;;1.67;;
64052;SDS011;50299;49.524;8.536;2023-10-13T11:17:23;4.05;;;2.00;;
64052;SDS011;50299;49.524;8.536;2023-10-13T11:20:27;3.90;;;2.30;;
64052;SDS011;50299;49.524;8.536;2023-10-13T11:22:59;4.53;;;1.90;;
64052;SDS011;50299;49.524;8.536;2023-10-13T11:25:27;2.28;;;1.85;;
64052;SDS011;50299;49.524;8.536;2023-10-13T11:27:57;3.78;;;2.45;;
64052;SDS011;50299;49.524;8.536;2023-10-13T11:30:37;2.03;;;1.90;;
64052;SDS011;50299;49.524;8.536;2023-10-13T11:33:04;2.25;;;1.98;;
64052;SDS011;50299;49.524;8.536;2023-10-13T11:35:38;2.20;;;2.00;;
64052;SDS011;50299;49.524;8.536;2023-10-13T11:41:15;3.08;;;2.15;;
64052;SDS011;50299;49.524;8.536;2023-10-13T11:43:58;2.03;;;1.83;;
64052;SDS011;50299;49.524;8.536;2023-10-13T11:46:50;4.55;;;1.95;;
64052;SDS011;50299;49.524;8.536;2023-10-13T11:49:22;3.08;;;1.88;;
64052;SDS011;50299;49.524;8.536;2023-10-13T11:51:55;2.28;;;2.00;;
64052;SDS011;50299;49.524;8.536;2023-10-13T11:54:41;4.60;;;2.38;;
64052;SDS011;50299;49.524;8.536;2023-10-13T11:57:08;3.95;;;2.60;;
64052;SDS011;50299;49.524;8.536;2023-10-13T11:59:35;4.85;;;2.35;;
64052;SDS011;50299;49.524;8.536;2023-10-13T12:02:10;4.50;;;2.60;;
64052;SDS011;50299;49.524;8.536;2023-10-13T12:04:38;4.57;;;2.30;;
64052;SDS011;50299;49.524;8.536;2023-10-13T12:07:21;2.83;;;2.08;;
64052;SDS011;50299;49.524;8.536;2023-10-13T12:10:06;2.72;;;1.92;;
64052;SDS011;50299;49.524;8.536;2023-10-13T12:12:41;3.10;;;2.42;;
64052;SDS011;50299;49.524;8.536;2023-10-13T12:15:11;2.85;;;2.15;;
64052;SDS011;50299;49.524;8.536;2023-10-13T12:17:52;2.70;;;2.28;;
64052;SDS011;50299;49.524;8.536;2023-10-13T12:20:19;4.85;;;2.55;;
64052;SDS011;50299;49.524;8.536;2023-10-13T12:22:59;2.72;;;2.05;;
64052;SDS011;50299;49.524;8.536;2023-10-13T12:25:38;2.85;;;1.90;;
64052;SDS011;50299;49.524;8.536;2023-10-13T12:28:22;3.83;;;2.28;;
64052;SDS011;50299;49.524;8.536;2023-10-13T12:30:50;4.72;;;2.45;;
64052;SDS011;50299;49.524;8.536;2023-10-13T12:33:23;3.75;;;2.50;;
64052;SDS011;50299;49.524;8.536;2023-10-13T12:35:57;6.13;;;2.63;;
64052;SDS011;50299;49.524;8.536;2023-10-13T12:38:30;7.50;;;4.07;;
64052;SDS011;50299;49.524;8.536;2023-10-13T12:41:06;2.90;;;1.95;;
64052;SDS011;50299;49.524;8.536;2023-10-13T12:44:01;6.28;;;2.28;;
64052;SDS011;50299;49.524;8.536;2023-10-13T12:46:49;2.33;;;1.85;;
64052;SDS011;50299;49.524;8.536;2023-10-13T12:49:35;2.33;;;2.10;;
64052;SDS011;50299;49.524;8.536;2023-10-13T12:52:14;3.28;;;2.20;;
64052;SDS011;50299;49.524;8.536;2023-10-13T12:54:46;8.57;;;2.40;;
64052;SDS011;50299;49.524;8.536;2023-10-13T12:57:34;3.05;;;2.42;;
64052;SDS011;50299;49.524;8.536;2023-10-13T13:00:00;2.55;;;1.90;;
64052;SDS011;50299;49.524;8.536;2023-10-13T13:02:42;7.07;;;2.28;;
64052;SDS011;50299;49.524;8.536;2023-10-13T13:05:10;4.45;;;2.35;;
64052;SDS011;50299;49.524;8.536;2023-10-13T13:07:40;4.63;;;2.45;;
64052;SDS011;50299;49.524;8.536;2023-10-13T13:10:16;2.97;;;1.95;;
64052;SDS011;50299;49.524;8.536;2023-10-13T13:12:43;6.57;;;2.25;;
64052;SDS011;50299;49.524;8.536;2023-10-13T13:15:10;2.97;;;2.17;;
64052;SDS011;50299;49.524;8.536;2023-10-13T13:20:07;5.32;;;1.80;;
64052;SDS011;50299;49.524;8.536;2023-10-13T13:22:54;3.72;;;2.13;;
64052;SDS011;50299;49.524;8.536;2023-10-13T13:25:21;3.42;;;2.33;;
64052;SDS011;50299;49.524;8.536;2023-10-13T13:27:56;2.72;;;1.92;;
64052;SDS011;50299;49.524;8.536;2023-10-13T13:30:32;4.95;;;2.33;;
64052;SDS011;50299;49.524;8.536;2023-10-13T13:33:03;3.15;;;2.10;;
64052;SDS011;50299;49.524;8.536;2023-10-13T13:35:40;2.95;;;2.15;;
64052;SDS011;50299;49.524;8.536;2023-10-13T13:38:09;2.40;;;2.00;;
64052;SDS011;50299;49.524;8.536;2023-10-13T13:40:42;4.10;;;2.10;;
64052;SDS011;50299;49.524;8.536;2023-10-13T13:43:15;3.63;;;2.30;;
64052;SDS011;50299;49.524;8.536;2023-10-13T13:46:15;2.45;;;2.15;;
64052;SDS011;50299;49.524;8.536;2023-10-13T13:48:43;2.30;;;1.92;;
64052;SDS011;50299;49.524;8.536;2023-10-13T13:51:13;2.53;;;1.63;;
64052;SDS011;50299;49.524;8.536;2023-10-13T13:53:42;2.85;;;2.00;;
64052;SDS011;50299;49.524;8.536;2023-10-13T13:56:12;14.70;;;2.58;;
64052;SDS011;50299;49.524;8.536;2023-10-13T13:58:49;3.83;;;2.22;;
64052;SDS011;50299;49.524;8.536;2023-10-13T14:01:18;2.03;;;1.80;;
64052;SDS011;50299;49.524;8.536;2023-10-13T14:03:46;4.95;;;2.40;;
64052;SDS011;50299;49.524;8.536;2023-10-13T14:06:20;2.53;;;2.08;;
64052;SDS011;50299;49.524;8.536;2023-10-13T14:08:50;2.03;;;1.83;;
64052;SDS011;50299;49.524;8.536;2023-10-13T14:11:21;4.15;;;2.38;;
64052;SDS011;50299;49.524;8.536;2023-10-13T14:14:11;4.30;;;1.92;;
64052;SDS011;50299;49.524;8.536;2023-10-13T14:16:43;4.03;;;2.20;;
64052;SDS011;50299;49.524;8.536;2023-10-13T14:19:14;3.75;;;2.42;;
64052;SDS011;50299;49.524;8.536;2023-10-13T14:21:45;3.70;;;2.83;;
64052;SDS011;50299;49.524;8.536;2023-10-13T14:24:20;6.93;;;2.78;;
64052;SDS011;50299;49.524;8.536;2023-10-13T14:26:57;3.08;;;1.85;;
64052;SDS011;50299;49.524;8.536;2023-10-13T14:29:51;2.67;;;2.05;;
64052;SDS011;50299;49.524;8.536;2023-10-13T14:32:22;3.10;;;1.92;;
64052;SDS011;50299;49.524;8.536;2023-10-13T14:34:54;4.07;;;2.30;;
64052;SDS011;50299;49.524;8.536;2023-10-13T14:37:22;3.20;;;1.77;;
64052;SDS011;50299;49.524;8.536;2023-10-13T14:39:53;4.88;;;2.15;;
64052;SDS011;50299;49.524;8.536;2023-10-13T14:42:27;3.58;;;1.98;;
64052;SDS011;50299;49.524;8.536;2023-10-13T14:44:55;2.40;;;1.85;;
64052;SDS011;50299;49.524;8.536;2023-10-13T14:47:24;2.13;;;1.67;;
64052;SDS011;50299;49.524;8.536;2023-10-13T14:49:57;2.28;;;1.95;;
64052;SDS011;50299;49.524;8.536;2023-10-13T14:52:28;3.65;;;1.52;;
64052;SDS011;50299;49.524;8.536;2023-10-13T14:54:59;1.90;;;1.58;;
64052;SDS011;50299;49.524;8.536;2023-10-13T14:57:25;3.22;;;1.52;;
64052;SDS011;50299;49.524;8.536;2023-10-13T14:59:53;1.80;;;1.67;;
64052;SDS011;50299;49.524;8.536;2023-10-13T15:02:24;3.70;;;2.28;;
64052;SDS011;50299;49.524;8.536;2023-10-13T15:04:51;4.55;;;2.05;;
64052;SDS011;50299;49.524;8.536;2023-10-13T15:07:18;3.67;;;2.00;;
64052;SDS011;50299;49.524;8.536;2023-10-13T15:09:46;2.28;;;1.85;;
64052;SDS011;50299;49.524;8.536;2023-10-13T15:12:12;4.70;;;2.05;;
64052;SDS011;50299;49.524;8.536;2023-10-13T15:14:49;2.28;;;1.80;;
64052;SDS011;50299;49.524;8.536;2023-10-13T15:17:25;6.03;;;2.00;;
64052;SDS011;50299;49.524;8.536;2023-10-13T15:19:56;2.00;;;1.80;;
64052;SDS011;50299;49.524;8.536;2023-10-13T15:22:22;2.35;;;2.15;;
64052;SDS011;50299;49.524;8.536;2023-10-13T15:24:54;3.75;;;2.17;;
64052;SDS011;50299;49.524;8.536;2023-10-13T15:27:35;3.72;;;2.03;;
64052;SDS011;50299;49.524;8.536;2023-10-13T15:30:11;3.00;;;1.80;;
64052;SDS011;50299;49.524;8.536;2023-10-13T15:32:53;3.17;;;1.60;;
64052;SDS011;50299;49.524;8.536;2023-10-13T15:35:20;2.25;;;1.70;;
64052;SDS011;50299;49.524;8.536;2023-10-13T15:37:49;2.47;;;1.73;;
64052;SDS011;50299;49.524;8.536;2023-10-13T15:40:18;3.58;;;2.08;;
64052;SDS011;50299;49.524;8.536;2023-10-13T15:42:45;3.25;;;1.95;;
64052;SDS011;50299;49.524;8.536;2023-10-13T15:45:17;2.03;;;1.40;;
64052;SDS011;50299;49.524;8.536;2023-10-13T15:47:47;4.28;;;2.08;;
64052;SDS011;50299;49.524;8.536;2023-10-13T15:50:17;2.45;;;1.55;;
64052;SDS011;50299;49.524;8.536;2023-10-13T15:52:48;2.47;;;1.85;;
64052;SDS011;50299;49.524;8.536;2023-10-13T15:55:15;3.20;;;1.77;;
64052;SDS011;50299;49.524;8.536;2023-10-13T15:57:44;1.83;;;1.70;;
64052;SDS011;50299;49.524;8.536;2023-10-13T16:00:11;2.60;;;2.08;;
64052;SDS011;50299;49.524;8.536;2023-10-13T16:02:54;5.53;;;1.77;;
64052;SDS011;50299;49.524;8.536;2023-10-13T16:05:30;1.80;;;1.58;;
64052;SDS011;50299;49.524;8.536;2023-10-13T16:08:01;4.00;;;1.70;;
64052;SDS011;50299;49.524;8.536;2023-10-13T16:10:30;2.05;;;1.70;;
64052;SDS011;50299;49.524;8.536;2023-10-13T16:12:56;2.35;;;1.67;;
64052;SDS011;50299;49.524;8.536;2023-10-13T16:15:24;5.30;;;1.98;;
64052;SDS011;50299;49.524;8.536;2023-10-13T16:17:53;2.25;;;1.70;;
64052;SDS011;50299;49.524;8.536;2023-10-13T16:20:20;3.80;;;1.92;;